Grethel, Kentucky
Current Conditions -  °F | °C
As of 2:15 PM on Saturday 25 Oct 2014 (Local Time) from KPBX Reporting Station
Overcast Overcast  
Wind Chill: 63°   Ceiling: 4900
Heat Index: 63°   Visibility: 10mi
Dew Point: 49°   Wind: 5mph
Humidity: 61%   Direction: 180°S
Pressure: 30"   Gusts: NA
Location:  37.49°N, 82.65°W
Report Text: KPBX 251815Z AUTO 18004KT 10SM BKN049 OVC060 17/10 A3000 RMK AO2 T01710095
Loading
Personal Weather Stations






























Interactive Weather Map
Tropical Storm Tracking
New forecast layout! Learn more

10-Day Weather Forecast

Advertisements
Track Severe Weather on mobile